sensor_id;sensor_type;location;lat;lon;timestamp;pressure;altitude;pressure_sealevel;temperature;humidity
16525;BME280;8375;33.594;-117.718;2022-12-05T00:01:44;100596.66;;;18.35;74.76
16525;BME280;8375;33.594;-117.718;2022-12-05T00:04:14;100591.41;;;18.35;75.17
16525;BME280;8375;33.594;-117.718;2022-12-05T00:06:46;100597.41;;;18.18;76.38
16525;BME280;8375;33.594;-117.718;2022-12-05T00:09:18;100590.72;;;18.24;75.90
16525;BME280;8375;33.594;-117.718;2022-12-05T00:11:47;100588.88;;;18.16;76.92
16525;BME280;8375;33.594;-117.718;2022-12-05T00:14:16;100584.28;;;18.18;76.96
16525;BME280;8375;33.594;-117.718;2022-12-05T00:16:47;100585.09;;;18.11;77.91
16525;BME280;8375;33.594;-117.718;2022-12-05T00:19:16;100591.66;;;18.15;77.52
16525;BME280;8375;33.594;-117.718;2022-12-05T00:21:48;100588.53;;;18.11;77.89
16525;BME280;8375;33.594;-117.718;2022-12-05T00:24:18;100594.75;;;18.10;78.25
16525;BME280;8375;33.594;-117.718;2022-12-05T00:26:48;100586.47;;;17.97;79.30
16525;BME280;8375;33.594;-117.718;2022-12-05T00:29:17;100591.22;;;17.93;79.20
16525;BME280;8375;33.594;-117.718;2022-12-05T00:31:48;100592.97;;;17.84;80.78
16525;BME280;8375;33.594;-117.718;2022-12-05T00:34:17;100587.84;;;17.74;81.53
16525;BME280;8375;33.594;-117.718;2022-12-05T00:36:46;100586.66;;;17.69;81.73
16525;BME280;8375;33.594;-117.718;2022-12-05T00:39:15;100586.47;;;17.62;82.56
16525;BME280;8375;33.594;-117.718;2022-12-05T00:41:45;100596.28;;;17.60;82.81
16525;BME280;8375;33.594;-117.718;2022-12-05T00:44:17;100582.50;;;17.58;83.09
16525;BME280;8375;33.594;-117.718;2022-12-05T00:47:00;100581.41;;;17.42;83.40
16525;BME280;8375;33.594;-117.718;2022-12-05T00:49:39;100585.75;;;17.34;84.08
16525;BME280;8375;33.594;-117.718;2022-12-05T00:52:18;100590.66;;;17.28;84.74
16525;BME280;8375;33.594;-117.718;2022-12-05T00:54:54;100588.88;;;17.29;85.15
16525;BME280;8375;33.594;-117.718;2022-12-05T00:57:35;100584.38;;;17.21;85.17
16525;BME280;8375;33.594;-117.718;2022-12-05T01:00:09;100596.38;;;17.24;85.24
16525;BME280;8375;33.594;-117.718;2022-12-05T01:02:43;100583.69;;;17.19;85.37
16525;BME280;8375;33.594;-117.718;2022-12-05T01:05:17;100584.00;;;17.16;85.53
16525;BME280;8375;33.594;-117.718;2022-12-05T01:07:47;100590.38;;;17.13;85.83
16525;BME280;8375;33.594;-117.718;2022-12-05T01:10:18;100586.13;;;17.12;85.51
16525;BME280;8375;33.594;-117.718;2022-12-05T01:12:48;100581.00;;;17.11;85.59
16525;BME280;8375;33.594;-117.718;2022-12-05T01:15:18;100589.84;;;17.10;85.98
16525;BME280;8375;33.594;-117.718;2022-12-05T01:17:52;100596.38;;;17.06;85.91
16525;BME280;8375;33.594;-117.718;2022-12-05T01:20:33;100590.09;;;16.98;86.30
16525;BME280;8375;33.594;-117.718;2022-12-05T01:23:08;100592.69;;;16.98;86.63
16525;BME280;8375;33.594;-117.718;2022-12-05T01:25:42;100589.38;;;16.96;86.68
16525;BME280;8375;33.594;-117.718;2022-12-05T01:28:15;100582.47;;;16.95;86.50
16525;BME280;8375;33.594;-117.718;2022-12-05T01:30:51;100590.06;;;16.80;87.24
16525;BME280;8375;33.594;-117.718;2022-12-05T01:33:22;100595.00;;;16.83;87.00
16525;BME280;8375;33.594;-117.718;2022-12-05T01:35:52;100591.41;;;16.84;86.92
16525;BME280;8375;33.594;-117.718;2022-12-05T01:38:29;100600.09;;;16.85;87.36
16525;BME280;8375;33.594;-117.718;2022-12-05T01:41:03;100602.56;;;16.86;87.02
16525;BME280;8375;33.594;-117.718;2022-12-05T01:43:32;100609.47;;;16.88;86.72
16525;BME280;8375;33.594;-117.718;2022-12-05T01:46:01;100606.19;;;16.85;86.61
16525;BME280;8375;33.594;-117.718;2022-12-05T01:48:33;100605.19;;;16.86;86.86
16525;BME280;8375;33.594;-117.718;2022-12-05T01:51:07;100609.16;;;16.72;86.89
16525;BME280;8375;33.594;-117.718;2022-12-05T01:53:37;100607.88;;;16.77;86.82
16525;BME280;8375;33.594;-117.718;2022-12-05T01:56:08;100610.78;;;16.74;87.46
16525;BME280;8375;33.594;-117.718;2022-12-05T01:58:38;100617.97;;;16.71;87.46
16525;BME280;8375;33.594;-117.718;2022-12-05T02:01:09;100627.34;;;16.74;86.73
16525;BME280;8375;33.594;-117.718;2022-12-05T02:03:49;100623.09;;;16.73;86.36
16525;BME280;8375;33.594;-117.718;2022-12-05T02:06:20;100622.25;;;16.72;86.65
16525;BME280;8375;33.594;-117.718;2022-12-05T02:08:53;100618.28;;;16.68;87.01
16525;BME280;8375;33.594;-117.718;2022-12-05T02:11:24;100624.06;;;16.72;86.16
16525;BME280;8375;33.594;-117.718;2022-12-05T02:14:10;100614.97;;;16.66;86.00
16525;BME280;8375;33.594;-117.718;2022-12-05T02:16:53;100621.06;;;16.67;86.14
16525;BME280;8375;33.594;-117.718;2022-12-05T02:20:02;100614.59;;;16.61;86.82
16525;BME280;8375;33.594;-117.718;2022-12-05T02:23:02;100626.72;;;16.62;86.38
16525;BME280;8375;33.594;-117.718;2022-12-05T02:26:08;100630.31;;;16.61;86.55
16525;BME280;8375;33.594;-117.718;2022-12-05T02:29:07;100631.47;;;16.59;86.57
16525;BME280;8375;33.594;-117.718;2022-12-05T02:32:00;100629.13;;;16.55;86.47
16525;BME280;8375;33.594;-117.718;2022-12-05T02:34:37;100625.34;;;16.40;86.44
16525;BME280;8375;33.594;-117.718;2022-12-05T02:37:26;100631.47;;;16.31;86.85
16525;BME280;8375;33.594;-117.718;2022-12-05T02:40:08;100633.34;;;16.38;85.98
16525;BME280;8375;33.594;-117.718;2022-12-05T02:42:43;100627.88;;;16.32;86.84
16525;BME280;8375;33.594;-117.718;2022-12-05T02:45:20;100628.97;;;16.29;87.77
16525;BME280;8375;33.594;-117.718;2022-12-05T02:47:53;100633.25;;;16.30;87.15
16525;BME280;8375;33.594;-117.718;2022-12-05T02:50:34;100633.41;;;16.28;86.75
16525;BME280;8375;33.594;-117.718;2022-12-05T02:53:23;100630.69;;;16.20;87.27
16525;BME280;8375;33.594;-117.718;2022-12-05T02:55:56;100633.59;;;16.17;87.33
16525;BME280;8375;33.594;-117.718;2022-12-05T02:58:42;100640.47;;;16.18;87.59
16525;BME280;8375;33.594;-117.718;2022-12-05T03:01:23;100638.00;;;16.17;87.49
16525;BME280;8375;33.594;-117.718;2022-12-05T03:04:04;100635.81;;;16.12;88.65
16525;BME280;8375;33.594;-117.718;2022-12-05T03:06:38;100635.53;;;16.05;88.49
16525;BME280;8375;33.594;-117.718;2022-12-05T03:09:41;100640.09;;;16.03;88.94
16525;BME280;8375;33.594;-117.718;2022-12-05T03:12:20;100634.75;;;16.05;89.69
16525;BME280;8375;33.594;-117.718;2022-12-05T03:15:05;100638.75;;;15.99;90.58
16525;BME280;8375;33.594;-117.718;2022-12-05T03:17:42;100638.22;;;15.95;90.70
16525;BME280;8375;33.594;-117.718;2022-12-05T03:20:27;100638.06;;;15.97;91.46
16525;BME280;8375;33.594;-117.718;2022-12-05T03:23:11;100639.88;;;15.96;92.00
16525;BME280;8375;33.594;-117.718;2022-12-05T03:26:04;100646.06;;;15.95;91.68
16525;BME280;8375;33.594;-117.718;2022-12-05T03:28:52;100644.41;;;15.94;92.45
16525;BME280;8375;33.594;-117.718;2022-12-05T03:31:37;100642.47;;;15.96;92.58
16525;BME280;8375;33.594;-117.718;2022-12-05T03:34:41;100643.56;;;15.84;93.80
16525;BME280;8375;33.594;-117.718;2022-12-05T03:37:38;100642.47;;;15.87;95.34
16525;BME280;8375;33.594;-117.718;2022-12-05T03:40:25;100643.16;;;15.79;96.45
16525;BME280;8375;33.594;-117.718;2022-12-05T03:43:09;100644.00;;;15.79;97.84
16525;BME280;8375;33.594;-117.718;2022-12-05T03:45:52;100643.31;;;15.77;98.18
16525;BME280;8375;33.594;-117.718;2022-12-05T03:48:30;100645.09;;;15.77;99.06
16525;BME280;8375;33.594;-117.718;2022-12-05T03:51:06;100643.31;;;15.67;99.24
16525;BME280;8375;33.594;-117.718;2022-12-05T03:53:43;100648.59;;;15.58;100.00
16525;BME280;8375;33.594;-117.718;2022-12-05T03:56:20;100637.00;;;15.60;100.00
16525;BME280;8375;33.594;-117.718;2022-12-05T03:58:53;100645.97;;;15.58;100.00
16525;BME280;8375;33.594;-117.718;2022-12-05T04:01:24;100651.31;;;15.56;100.00
16525;BME280;8375;33.594;-117.718;2022-12-05T04:03:57;100655.88;;;15.54;100.00
16525;BME280;8375;33.594;-117.718;2022-12-05T04:06:39;100651.06;;;15.49;100.00
16525;BME280;8375;33.594;-117.718;2022-12-05T04:09:11;100648.03;;;15.44;100.00
16525;BME280;8375;33.594;-117.718;2022-12-05T04:11:50;100642.66;;;15.46;100.00
16525;BME280;8375;33.594;-117.718;2022-12-05T04:14:25;100652.31;;;15.45;100.00
16525;BME280;8375;33.594;-117.718;2022-12-05T04:16:59;100651.63;;;15.43;100.00
16525;BME280;8375;33.594;-117.718;2022-12-05T04:19:35;100646.94;;;15.37;100.00
16525;BME280;8375;33.594;-117.718;2022-12-05T04:22:24;100646.66;;;15.30;100.00
16525;BME280;8375;33.594;-117.718;2022-12-05T04:24:56;100646.25;;;15.35;100.00
16525;BME280;8375;33.594;-117.718;2022-12-05T04:27:49;100648.59;;;15.28;100.00
16525;BME280;8375;33.594;-117.718;2022-12-05T04:30:23;100642.94;;;15.23;100.00
16525;BME280;8375;33.594;-117.718;2022-12-05T04:33:02;100647.47;;;15.21;100.00
16525;BME280;8375;33.594;-117.718;2022-12-05T04:35:39;100644.31;;;15.27;100.00
16525;BME280;8375;33.594;-117.718;2022-12-05T04:38:23;100644.72;;;15.32;100.00
16525;BME280;8375;33.594;-117.718;2022-12-05T04:41:05;100651.75;;;15.32;100.00
16525;BME280;8375;33.594;-117.718;2022-12-05T04:43:40;100648.19;;;15.33;100.00
16525;BME280;8375;33.594;-117.718;2022-12-05T04:46:19;100642.97;;;15.33;100.00
16525;BME280;8375;33.594;-117.718;2022-12-05T04:48:57;100646.38;;;15.33;100.00
16525;BME280;8375;33.594;-117.718;2022-12-05T04:51:38;100643.91;;;15.32;100.00
16525;BME280;8375;33.594;-117.718;2022-12-05T04:54:28;100647.50;;;15.31;100.00
16525;BME280;8375;33.594;-117.718;2022-12-05T04:57:11;100649.44;;;15.29;100.00
16525;BME280;8375;33.594;-117.718;2022-12-05T04:59:49;100650.25;;;15.29;100.00
16525;BME280;8375;33.594;-117.718;2022-12-05T05:02:29;100650.50;;;15.26;100.00
16525;BME280;8375;33.594;-117.718;2022-12-05T05:05:10;100655.34;;;15.21;100.00
16525;BME280;8375;33.594;-117.718;2022-12-05T05:07:44;100651.91;;;15.20;100.00
16525;BME280;8375;33.594;-117.718;2022-12-05T05:10:29;100652.03;;;15.19;100.00
16525;BME280;8375;33.594;-117.718;2022-12-05T05:13:08;100651.34;;;15.17;100.00
16525;BME280;8375;33.594;-117.718;2022-12-05T05:15:53;100659.88;;;15.19;100.00
16525;BME280;8375;33.594;-117.718;2022-12-05T05:18:25;100654.91;;;15.16;100.00
16525;BME280;8375;33.594;-117.718;2022-12-05T05:20:57;100652.84;;;15.09;100.00
16525;BME280;8375;33.594;-117.718;2022-12-05T05:23:29;100658.50;;;15.15;100.00
16525;BME280;8375;33.594;-117.718;2022-12-05T05:26:03;100649.16;;;15.12;100.00
16525;BME280;8375;33.594;-117.718;2022-12-05T05:28:36;100658.06;;;15.09;100.00
16525;BME280;8375;33.594;-117.718;2022-12-05T05:31:09;100655.47;;;15.09;100.00
16525;BME280;8375;33.594;-117.718;2022-12-05T05:33:43;100656.56;;;15.07;100.00
16525;BME280;8375;33.594;-117.718;2022-12-05T05:36:26;100642.94;;;15.03;100.00
16525;BME280;8375;33.594;-117.718;2022-12-05T05:38:59;100655.19;;;15.03;100.00
16525;BME280;8375;33.594;-117.718;2022-12-05T05:41:36;100651.75;;;15.02;100.00
16525;BME280;8375;33.594;-117.718;2022-12-05T05:44:10;100649.53;;;15.07;100.00
16525;BME280;8375;33.594;-117.718;2022-12-05T05:46:40;100648.97;;;14.94;100.00
16525;BME280;8375;33.594;-117.718;2022-12-05T05:49:09;100658.91;;;14.90;100.00
16525;BME280;8375;33.594;-117.718;2022-12-05T05:51:42;100660.28;;;14.94;100.00
16525;BME280;8375;33.594;-117.718;2022-12-05T05:54:22;100651.59;;;14.94;100.00
16525;BME280;8375;33.594;-117.718;2022-12-05T05:56:52;100651.47;;;14.95;100.00
16525;BME280;8375;33.594;-117.718;2022-12-05T05:59:23;100648.13;;;14.84;100.00
16525;BME280;8375;33.594;-117.718;2022-12-05T06:01:52;100636.34;;;14.89;100.00
16525;BME280;8375;33.594;-117.718;2022-12-05T06:04:21;100636.44;;;14.88;100.00
16525;BME280;8375;33.594;-117.718;2022-12-05T06:06:55;100628.50;;;14.89;100.00
16525;BME280;8375;33.594;-117.718;2022-12-05T06:09:26;100632.19;;;14.87;100.00
16525;BME280;8375;33.594;-117.718;2022-12-05T06:11:58;100629.56;;;14.87;100.00
16525;BME280;8375;33.594;-117.718;2022-12-05T06:14:29;100630.81;;;14.82;100.00
16525;BME280;8375;33.594;-117.718;2022-12-05T06:17:11;100626.69;;;14.80;100.00
16525;BME280;8375;33.594;-117.718;2022-12-05T06:19:41;100622.28;;;14.80;100.00
16525;BME280;8375;33.594;-117.718;2022-12-05T06:22:11;100627.09;;;14.85;100.00
16525;BME280;8375;33.594;-117.718;2022-12-05T06:24:40;100626.25;;;14.85;100.00
16525;BME280;8375;33.594;-117.718;2022-12-05T06:27:11;100622.69;;;14.86;100.00
16525;BME280;8375;33.594;-117.718;2022-12-05T06:29:41;100619.13;;;14.87;100.00
16525;BME280;8375;33.594;-117.718;2022-12-05T06:32:11;100627.91;;;14.86;100.00
16525;BME280;8375;33.594;-117.718;2022-12-05T06:34:40;100626.41;;;14.83;100.00
16525;BME280;8375;33.594;-117.718;2022-12-05T06:37:13;100628.19;;;14.82;100.00
16525;BME280;8375;33.594;-117.718;2022-12-05T06:39:50;100629.84;;;14.84;100.00
16525;BME280;8375;33.594;-117.718;2022-12-05T06:42:19;100628.34;;;14.81;100.00
16525;BME280;8375;33.594;-117.718;2022-12-05T06:44:53;100630.97;;;14.81;100.00
16525;BME280;8375;33.594;-117.718;2022-12-05T06:47:23;100624.88;;;14.80;100.00
16525;BME280;8375;33.594;-117.718;2022-12-05T06:49:55;100632.47;;;14.84;100.00
16525;BME280;8375;33.594;-117.718;2022-12-05T06:52:26;100636.31;;;14.79;100.00
16525;BME280;8375;33.594;-117.718;2022-12-05T06:54:54;100639.75;;;14.80;100.00
16525;BME280;8375;33.594;-117.718;2022-12-05T06:57:25;100640.03;;;14.77;100.00
16525;BME280;8375;33.594;-117.718;2022-12-05T06:59:59;100650.31;;;14.78;100.00
16525;BME280;8375;33.594;-117.718;2022-12-05T07:02:42;100651.44;;;14.76;100.00
16525;BME280;8375;33.594;-117.718;2022-12-05T07:05:23;100648.94;;;14.74;100.00
16525;BME280;8375;33.594;-117.718;2022-12-05T07:07:57;100646.97;;;14.66;100.00
16525;BME280;8375;33.594;-117.718;2022-12-05T07:10:29;100652.34;;;14.65;100.00
16525;BME280;8375;33.594;-117.718;2022-12-05T07:13:08;100648.06;;;14.64;100.00
16525;BME280;8375;33.594;-117.718;2022-12-05T07:15:40;100645.88;;;14.59;100.00
16525;BME280;8375;33.594;-117.718;2022-12-05T07:18:11;100642.69;;;14.56;100.00
16525;BME280;8375;33.594;-117.718;2022-12-05T07:20:41;100646.41;;;14.53;100.00
16525;BME280;8375;33.594;-117.718;2022-12-05T07:23:11;100636.59;;;14.45;100.00
16525;BME280;8375;33.594;-117.718;2022-12-05T07:25:41;100639.38;;;14.44;100.00
16525;BME280;8375;33.594;-117.718;2022-12-05T07:28:12;100641.00;;;14.45;100.00
16525;BME280;8375;33.594;-117.718;2022-12-05T07:31:01;100640.16;;;14.44;100.00
16525;BME280;8375;33.594;-117.718;2022-12-05T07:33:37;100636.06;;;14.42;100.00
16525;BME280;8375;33.594;-117.718;2022-12-05T07:36:09;100637.72;;;14.43;100.00
16525;BME280;8375;33.594;-117.718;2022-12-05T07:38:39;100628.22;;;14.42;100.00
16525;BME280;8375;33.594;-117.718;2022-12-05T07:41:10;100628.59;;;14.37;100.00
16525;BME280;8375;33.594;-117.718;2022-12-05T07:43:42;100623.22;;;14.29;100.00
16525;BME280;8375;33.594;-117.718;2022-12-05T07:46:14;100626.94;;;14.26;100.00
16525;BME280;8375;33.594;-117.718;2022-12-05T07:48:44;100619.63;;;14.20;100.00
16525;BME280;8375;33.594;-117.718;2022-12-05T07:51:16;100621.13;;;14.22;100.00
16525;BME280;8375;33.594;-117.718;2022-12-05T07:53:52;100613.72;;;14.18;100.00
16525;BME280;8375;33.594;-117.718;2022-12-05T07:56:23;100612.31;;;14.14;100.00
16525;BME280;8375;33.594;-117.718;2022-12-05T07:58:53;100612.44;;;14.12;100.00
16525;BME280;8375;33.594;-117.718;2022-12-05T08:01:26;100605.72;;;14.10;100.00
16525;BME280;8375;33.594;-117.718;2022-12-05T08:03:57;100606.66;;;14.08;100.00
16525;BME280;8375;33.594;-117.718;2022-12-05T08:06:28;100608.69;;;14.05;100.00
16525;BME280;8375;33.594;-117.718;2022-12-05T08:08:58;100597.72;;;14.11;100.00
16525;BME280;8375;33.594;-117.718;2022-12-05T08:11:30;100602.41;;;14.07;100.00
16525;BME280;8375;33.594;-117.718;2022-12-05T08:14:10;100588.75;;;14.04;100.00
16525;BME280;8375;33.594;-117.718;2022-12-05T08:16:42;100590.41;;;14.05;100.00
16525;BME280;8375;33.594;-117.718;2022-12-05T08:19:13;100587.81;;;14.05;100.00
16525;BME280;8375;33.594;-117.718;2022-12-05T08:21:54;100588.91;;;14.02;100.00
16525;BME280;8375;33.594;-117.718;2022-12-05T08:24:27;100583.69;;;14.02;100.00
16525;BME280;8375;33.594;-117.718;2022-12-05T08:26:55;100579.28;;;14.03;100.00
16525;BME280;8375;33.594;-117.718;2022-12-05T08:29:24;100577.63;;;14.02;100.00
16525;BME280;8375;33.594;-117.718;2022-12-05T08:31:54;100573.63;;;13.98;100.00
16525;BME280;8375;33.594;-117.718;2022-12-05T08:34:23;100580.50;;;13.99;100.00
16525;BME280;8375;33.594;-117.718;2022-12-05T08:36:51;100577.09;;;13.98;100.00
16525;BME280;8375;33.594;-117.718;2022-12-05T08:39:20;100577.34;;;13.95;100.00
16525;BME280;8375;33.594;-117.718;2022-12-05T08:41:49;100579.97;;;13.95;100.00
16525;BME280;8375;33.594;-117.718;2022-12-05T08:44:18;100582.81;;;13.92;100.00
16525;BME280;8375;33.594;-117.718;2022-12-05T08:46:48;100575.81;;;13.92;100.00
16525;BME280;8375;33.594;-117.718;2022-12-05T08:49:19;100572.94;;;13.96;100.00
16525;BME280;8375;33.594;-117.718;2022-12-05T08:51:47;100564.41;;;13.93;100.00
16525;BME280;8375;33.594;-117.718;2022-12-05T08:54:16;100573.78;;;13.96;100.00
16525;BME280;8375;33.594;-117.718;2022-12-05T08:56:45;100569.38;;;13.97;100.00
16525;BME280;8375;33.594;-117.718;2022-12-05T08:59:13;100566.06;;;13.94;100.00
16525;BME280;8375;33.594;-117.718;2022-12-05T09:01:42;100565.94;;;13.96;100.00
16525;BME280;8375;33.594;-117.718;2022-12-05T09:04:11;100571.28;;;13.94;100.00
16525;BME280;8375;33.594;-117.718;2022-12-05T09:06:41;100568.66;;;13.94;100.00
16525;BME280;8375;33.594;-117.718;2022-12-05T09:09:11;100569.94;;;14.00;100.00
16525;BME280;8375;33.594;-117.718;2022-12-05T09:11:41;100573.63;;;13.98;100.00
16525;BME280;8375;33.594;-117.718;2022-12-05T09:14:12;100574.47;;;13.98;100.00
16525;BME280;8375;33.594;-117.718;2022-12-05T09:16:43;100574.59;;;13.97;100.00
16525;BME280;8375;33.594;-117.718;2022-12-05T09:19:14;100570.31;;;13.96;100.00
16525;BME280;8375;33.594;-117.718;2022-12-05T09:21:45;100571.88;;;13.98;100.00
16525;BME280;8375;33.594;-117.718;2022-12-05T09:24:13;100574.47;;;13.98;100.00
16525;BME280;8375;33.594;-117.718;2022-12-05T09:26:42;100574.59;;;13.97;100.00
16525;BME280;8375;33.594;-117.718;2022-12-05T09:29:11;100572.94;;;13.96;100.00
16525;BME280;8375;33.594;-117.718;2022-12-05T09:31:41;100566.22;;;13.93;100.00
16525;BME280;8375;33.594;-117.718;2022-12-05T09:34:10;100568.41;;;13.98;100.00
16525;BME280;8375;33.594;-117.718;2022-12-05T09:36:39;100564.03;;;13.98;100.00
16525;BME280;8375;33.594;-117.718;2022-12-05T09:39:10;100574.03;;;13.93;100.00
16525;BME280;8375;33.594;-117.718;2022-12-05T09:42:05;100574.75;;;13.95;100.00
16525;BME280;8375;33.594;-117.718;2022-12-05T09:44:58;100569.63;;;13.93;100.00
16525;BME280;8375;33.594;-117.718;2022-12-05T09:47:39;100575.69;;;13.94;100.00
16525;BME280;8375;33.594;-117.718;2022-12-05T09:50:18;100569.63;;;13.93;100.00
16525;BME280;8375;33.594;-117.718;2022-12-05T09:52:59;100568.81;;;13.93;100.00
16525;BME280;8375;33.594;-117.718;2022-12-05T09:55:37;100574.59;;;13.97;100.00
16525;BME280;8375;33.594;-117.718;2022-12-05T09:58:25;100571.16;;;13.96;100.00
16525;BME280;8375;33.594;-117.718;2022-12-05T10:01:01;100571.88;;;13.98;100.00
16525;BME280;8375;33.594;-117.718;2022-12-05T10:03:37;100565.81;;;13.98;100.00
16525;BME280;8375;33.594;-117.718;2022-12-05T10:06:17;100568.81;;;13.93;100.00
16525;BME280;8375;33.594;-117.718;2022-12-05T10:09:07;100572.75;;;13.87;100.00
16525;BME280;8375;33.594;-117.718;2022-12-05T10:11:44;100572.75;;;13.87;100.00
16525;BME280;8375;33.594;-117.718;2022-12-05T10:14:18;100575.63;;;13.84;100.00
16525;BME280;8375;33.594;-117.718;2022-12-05T10:16:53;100580.16;;;13.82;100.00
16525;BME280;8375;33.594;-117.718;2022-12-05T10:19:27;100572.59;;;13.79;100.00
16525;BME280;8375;33.594;-117.718;2022-12-05T10:22:03;100574.13;;;13.82;100.00
16525;BME280;8375;33.594;-117.718;2022-12-05T10:24:39;100574.94;;;13.82;100.00
16525;BME280;8375;33.594;-117.718;2022-12-05T10:27:15;100575.63;;;13.84;100.00
16525;BME280;8375;33.594;-117.718;2022-12-05T10:29:49;100579.34;;;13.82;100.00
16525;BME280;8375;33.594;-117.718;2022-12-05T10:32:29;100573.72;;;13.86;100.00
16525;BME280;8375;33.594;-117.718;2022-12-05T10:35:08;100572.22;;;13.84;100.00
16525;BME280;8375;33.594;-117.718;2022-12-05T10:37:42;100571.63;;;13.80;100.00
16525;BME280;8375;33.594;-117.718;2022-12-05T10:40:14;100571.63;;;13.80;100.00
16525;BME280;8375;33.594;-117.718;2022-12-05T10:42:44;100577.94;;;13.77;100.00
16525;BME280;8375;33.594;-117.718;2022-12-05T10:45:17;100575.34;;;13.77;100.00
16525;BME280;8375;33.594;-117.718;2022-12-05T10:47:46;100569.72;;;13.82;100.00
16525;BME280;8375;33.594;-117.718;2022-12-05T10:50:22;100566.28;;;13.82;100.00
16525;BME280;8375;33.594;-117.718;2022-12-05T10:52:52;100564.75;;;13.79;100.00
16525;BME280;8375;33.594;-117.718;2022-12-05T10:55:27;100568.22;;;13.79;100.00
16525;BME280;8375;33.594;-117.718;2022-12-05T10:58:11;100560.38;;;13.79;100.00
16525;BME280;8375;33.594;-117.718;2022-12-05T11:00:41;100563.38;;;13.75;100.00
16525;BME280;8375;33.594;-117.718;2022-12-05T11:03:26;100562.41;;;13.76;100.00
16525;BME280;8375;33.594;-117.718;2022-12-05T11:05:57;100556.66;;;13.72;100.00
16525;BME280;8375;33.594;-117.718;2022-12-05T11:08:28;100560.66;;;13.76;100.00
16525;BME280;8375;33.594;-117.718;2022-12-05T11:11:01;100561.84;;;13.72;100.00
16525;BME280;8375;33.594;-117.718;2022-12-05T11:13:33;100554.59;;;13.76;100.00
16525;BME280;8375;33.594;-117.718;2022-12-05T11:16:02;100553.88;;;13.74;100.00
16525;BME280;8375;33.594;-117.718;2022-12-05T11:18:32;100555.81;;;13.72;100.00
16525;BME280;8375;33.594;-117.718;2022-12-05T11:21:09;100545.63;;;13.69;100.00
16525;BME280;8375;33.594;-117.718;2022-12-05T11:23:38;100544.81;;;13.68;100.00
16525;BME280;8375;33.594;-117.718;2022-12-05T11:26:16;100544.94;;;13.67;100.00
16525;BME280;8375;33.594;-117.718;2022-12-05T11:28:47;100552.25;;;13.73;100.00
16525;BME280;8375;33.594;-117.718;2022-12-05T11:31:24;100546.31;;;13.71;100.00
16525;BME280;8375;33.594;-117.718;2022-12-05T11:34:10;100542.91;;;13.70;100.00
16525;BME280;8375;33.594;-117.718;2022-12-05T11:36:45;100546.06;;;13.74;100.00
16525;BME280;8375;33.594;-117.718;2022-12-05T11:39:15;100545.00;;;13.76;100.00
16525;BME280;8375;33.594;-117.718;2022-12-05T11:42:07;100542.50;;;13.75;100.00
16525;BME280;8375;33.594;-117.718;2022-12-05T11:44:59;100536.91;;;13.79;100.00
16525;BME280;8375;33.594;-117.718;2022-12-05T11:47:43;100531.69;;;13.79;100.00
16525;BME280;8375;33.594;-117.718;2022-12-05T11:50:27;100530.16;;;13.77;100.00
16525;BME280;8375;33.594;-117.718;2022-12-05T11:53:15;100527.53;;;13.77;100.00
16525;BME280;8375;33.594;-117.718;2022-12-05T11:55:55;100520.63;;;13.66;100.00
16525;BME280;8375;33.594;-117.718;2022-12-05T11:58:47;100523.41;;;13.74;100.00
16525;BME280;8375;33.594;-117.718;2022-12-05T12:01:31;100518.84;;;13.67;100.00
16525;BME280;8375;33.594;-117.718;2022-12-05T12:04:25;100524.22;;;13.65;100.00
16525;BME280;8375;33.594;-117.718;2022-12-05T12:07:18;100519.78;;;13.66;100.00
16525;BME280;8375;33.594;-117.718;2022-12-05T12:09:57;100521.84;;;13.62;100.00
16525;BME280;8375;33.594;-117.718;2022-12-05T12:12:38;100516.31;;;13.55;100.00
16525;BME280;8375;33.594;-117.718;2022-12-05T12:15:29;100515.31;;;13.46;100.00
16525;BME280;8375;33.594;-117.718;2022-12-05T12:18:10;100516.41;;;13.44;100.00
16525;BME280;8375;33.594;-117.718;2022-12-05T12:20:52;100516.63;;;13.41;100.00
16525;BME280;8375;33.594;-117.718;2022-12-05T12:23:39;100516.44;;;13.32;100.00
16525;BME280;8375;33.594;-117.718;2022-12-05T12:26:13;100512.94;;;13.22;100.00
16525;BME280;8375;33.594;-117.718;2022-12-05T12:28:52;100516.06;;;13.16;100.00
16525;BME280;8375;33.594;-117.718;2022-12-05T12:31:37;100517.97;;;13.14;100.00
16525;BME280;8375;33.594;-117.718;2022-12-05T12:34:35;100514.97;;;13.18;100.00
16525;BME280;8375;33.594;-117.718;2022-12-05T12:37:12;100521.03;;;13.19;100.00
16525;BME280;8375;33.594;-117.718;2022-12-05T12:39:49;100518.16;;;13.22;100.00
16525;BME280;8375;33.594;-117.718;2022-12-05T12:42:22;100518.28;;;13.20;100.00
16525;BME280;8375;33.594;-117.718;2022-12-05T12:45:36;100528.16;;;13.17;100.00
16525;BME280;8375;33.594;-117.718;2022-12-05T12:48:23;100524.69;;;13.16;100.00
16525;BME280;8375;33.594;-117.718;2022-12-05T12:50:57;100525.78;;;13.14;100.00
16525;BME280;8375;33.594;-117.718;2022-12-05T12:56:35;100531.00;;;13.14;100.00
16525;BME280;8375;33.594;-117.718;2022-12-05T12:59:17;100542.19;;;13.04;100.00
16525;BME280;8375;33.594;-117.718;2022-12-05T13:01:53;100542.44;;;13.01;100.00
16525;BME280;8375;33.594;-117.718;2022-12-05T13:04:24;100543.84;;;13.05;100.00
16525;BME280;8375;33.594;-117.718;2022-12-05T13:06:59;100540.84;;;13.10;100.00
16525;BME280;8375;33.594;-117.718;2022-12-05T13:09:34;100542.38;;;13.13;100.00
16525;BME280;8375;33.594;-117.718;2022-12-05T13:12:07;100545.69;;;13.15;100.00